Time;durP1;ratioP1;P1;durP2;ratioP2;P2;SDS_P1;SDS_P2;PMS_P1;PMS_P2;Temp;Humidity;BMP_temperature;BMP_pressure;BME280_temperature;BME280_humidity;BME280_pressure;Samples;Min_cycle;Max_cycle;Signal;HPM_P1;HPM_P2
2022/03/10 00:00:26;;;;;;;46.13;22.17;;;;;;;;;;6217485;23;20181;-82
2022/03/10 00:02:52;;;;;;;39.87;21.03;;;;;;;;;;6218073;23;20167;-82
2022/03/10 00:05:18;;;;;;;53.93;24.50;;;;;;;;;;6219279;23;20153;-83
2022/03/10 00:07:44;;;;;;;39.17;21.27;;;;;;;;;;6219297;23;20467;-82
2022/03/10 00:10:10;;;;;;;36.63;21.23;;;;;;;;;;6220269;23;20507;-82
2022/03/10 00:12:37;;;;;;;35.90;21.13;;;;;;;;;;6219791;23;20220;-83
2022/03/10 00:15:10;;;;;;;43.57;21.57;;;;;;;;;;6219430;23;20151;-83
2022/03/10 00:17:36;;;;;;;39.83;21.07;;;;;;;;;;6219757;23;20597;-82
2022/03/10 00:20:03;;;;;;;40.50;21.13;;;;;;;;;;6219231;23;20154;-82
2022/03/10 00:22:29;;;;;;;42.93;21.97;;;;;;;;;;6219968;23;20164;-81
2022/03/10 00:24:55;;;;;;;42.17;22.00;;;;;;;;;;6219421;23;20207;-83
2022/03/10 00:27:21;;;;;;;36.50;21.33;;;;;;;;;;6218491;23;20234;-82
2022/03/10 00:29:47;;;;;;;39.73;20.83;;;;;;;;;;6220016;23;20150;-82
2022/03/10 00:32:13;;;;;;;38.70;21.20;;;;;;;;;;6219421;23;20641;-82
2022/03/10 00:34:39;;;;;;;39.07;20.17;;;;;;;;;;6219337;23;20463;-82
2022/03/10 00:37:05;;;;;;;47.07;24.83;;;;;;;;;;6219550;23;20247;-83
2022/03/10 00:39:31;;;;;;;34.63;20.17;;;;;;;;;;6219083;23;20186;-83
2022/03/10 00:41:57;;;;;;;39.53;20.93;;;;;;;;;;6192270;23;20189;-82
2022/03/10 00:44:24;;;;;;;37.40;20.40;;;;;;;;;;6218958;23;20155;-82
2022/03/10 00:46:50;;;;;;;39.57;21.07;;;;;;;;;;6218901;23;20143;-83
2022/03/10 00:49:16;;;;;;;49.33;23.63;;;;;;;;;;6219229;23;20162;-82
2022/03/10 00:51:42;;;;;;;37.90;20.10;;;;;;;;;;6219839;22;20240;31
2022/03/10 00:54:08;;;;;;;35.07;19.60;;;;;;;;;;6164178;23;20182;-82
2022/03/10 00:56:34;;;;;;;41.53;21.70;;;;;;;;;;6163629;23;20149;-81
2022/03/10 00:59:00;;;;;;;36.73;19.77;;;;;;;;;;6162699;23;20159;-82
2022/03/10 01:01:26;;;;;;;33.73;19.97;;;;;;;;;;6162080;23;20183;-82
2022/03/10 01:03:52;;;;;;;39.57;21.57;;;;;;;;;;6163840;23;20235;-82
2022/03/10 01:06:18;;;;;;;43.93;21.50;;;;;;;;;;6138152;23;20158;-82
2022/03/10 01:08:44;;;;;;;45.77;22.80;;;;;;;;;;6164795;23;20230;-82
2022/03/10 01:11:10;;;;;;;40.47;21.90;;;;;;;;;;6143662;23;20187;-82
2022/03/10 01:13:36;;;;;;;44.83;23.87;;;;;;;;;;6178943;23;20179;-82
2022/03/10 01:16:02;;;;;;;44.53;22.40;;;;;;;;;;6157132;23;20187;-82
2022/03/10 01:18:28;;;;;;;48.87;23.37;;;;;;;;;;6158451;23;20171;-82
2022/03/10 01:20:54;;;;;;;41.67;21.63;;;;;;;;;;6183705;23;20165;-81
2022/03/10 01:23:20;;;;;;;44.07;21.80;;;;;;;;;;6173797;23;20160;-82
2022/03/10 01:25:46;;;;;;;40.13;21.13;;;;;;;;;;6166979;23;20174;-82
2022/03/10 01:28:12;;;;;;;40.30;21.90;;;;;;;;;;6164435;23;20182;-82
2022/03/10 01:30:38;;;;;;;42.03;20.60;;;;;;;;;;6165222;23;20236;-82
2022/03/10 01:33:04;;;;;;;43.00;22.23;;;;;;;;;;6139375;23;20192;-82
2022/03/10 01:35:30;;;;;;;41.53;21.33;;;;;;;;;;6139303;23;20175;-82
2022/03/10 01:37:56;;;;;;;38.47;21.87;;;;;;;;;;6139066;23;20231;-82
2022/03/10 01:40:22;;;;;;;42.67;21.13;;;;;;;;;;6158796;23;20191;-81
2022/03/10 01:42:48;;;;;;;43.03;21.90;;;;;;;;;;6162200;23;20193;-82
2022/03/10 01:45:15;;;;;;;41.87;22.37;;;;;;;;;;6163689;23;20151;-82
2022/03/10 01:47:41;;;;;;;41.20;20.87;;;;;;;;;;6138500;23;20159;-82
2022/03/10 01:50:08;;;;;;;41.33;21.33;;;;;;;;;;6162703;23;20161;-82
2022/03/10 01:52:34;;;;;;;42.80;21.67;;;;;;;;;;6162437;23;20187;-82
2022/03/10 01:55:01;;;;;;;38.67;21.47;;;;;;;;;;6162433;23;20188;-82
2022/03/10 01:57:27;;;;;;;37.33;21.17;;;;;;;;;;6162662;23;20159;-82
2022/03/10 01:59:53;;;;;;;40.17;21.33;;;;;;;;;;6162963;23;20205;-82
2022/03/10 02:02:19;;;;;;;39.13;20.93;;;;;;;;;;6138595;23;20169;-81
2022/03/10 02:04:45;;;;;;;39.67;21.77;;;;;;;;;;6138365;23;20157;-82
2022/03/10 02:10:17;;;;;;;39.47;21.50;;;;;;;;;;6134088;23;20159;-82
2022/03/10 02:12:47;;;;;;;39.80;22.27;;;;;;;;;;6163999;23;20197;-83
2022/03/10 02:17:58;;;;;;;40.97;20.07;;;;;;;;;;6164081;23;20171;-83
2022/03/10 02:20:24;;;;;;;40.30;20.33;;;;;;;;;;6161705;23;20172;-83
2022/03/10 02:22:50;;;;;;;40.70;20.17;;;;;;;;;;6163071;23;20431;-83
2022/03/10 02:25:16;;;;;;;37.27;20.53;;;;;;;;;;6165096;23;20179;-84
2022/03/10 02:27:48;;;;;;;42.40;20.23;;;;;;;;;;6164888;23;20183;-84
2022/03/10 02:30:14;;;;;;;39.53;21.20;;;;;;;;;;6164050;23;20162;-83
2022/03/10 02:32:40;;;;;;;40.10;20.30;;;;;;;;;;6163643;23;20639;-83
2022/03/10 02:35:06;;;;;;;42.67;21.10;;;;;;;;;;6137237;23;20157;-83
2022/03/10 02:37:32;;;;;;;40.40;21.17;;;;;;;;;;6163357;23;20237;-83
2022/03/10 02:39:58;;;;;;;51.40;24.23;;;;;;;;;;6138597;23;20593;-83
2022/03/10 02:42:24;;;;;;;55.13;25.47;;;;;;;;;;6165761;23;20176;-83
2022/03/10 02:44:50;;;;;;;70.63;27.20;;;;;;;;;;6138893;23;20511;-83
2022/03/10 02:47:18;;;;;;;70.70;29.40;;;;;;;;;;6163891;23;20637;-83
2022/03/10 02:49:44;;;;;;;48.33;23.40;;;;;;;;;;6162941;23;20145;-82
2022/03/10 02:52:10;;;;;;;38.43;21.07;;;;;;;;;;6164019;23;20187;-83
2022/03/10 02:54:36;;;;;;;38.57;20.27;;;;;;;;;;6167099;23;20144;-83
2022/03/10 02:57:02;;;;;;;38.67;20.23;;;;;;;;;;6162727;23;20226;-82
2022/03/10 02:59:28;;;;;;;34.07;19.40;;;;;;;;;;6164428;23;20251;-83
2022/03/10 03:01:58;;;;;;;39.10;22.07;;;;;;;;;;6164322;23;20179;-82
2022/03/10 03:04:24;;;;;;;35.13;18.63;;;;;;;;;;6164735;23;20170;-82
2022/03/10 03:06:50;;;;;;;36.10;19.57;;;;;;;;;;6163374;23;20153;-81
2022/03/10 03:09:16;;;;;;;36.20;20.30;;;;;;;;;;6136724;23;20171;-81
2022/03/10 03:11:42;;;;;;;36.83;20.63;;;;;;;;;;6160391;23;20164;-82
2022/03/10 03:14:09;;;;;;;37.90;19.83;;;;;;;;;;6162124;23;20147;-82
2022/03/10 03:16:35;;;;;;;38.90;19.17;;;;;;;;;;6134852;23;20254;-82
2022/03/10 03:19:01;;;;;;;34.20;18.80;;;;;;;;;;6160778;23;20155;-82
2022/03/10 03:21:27;;;;;;;41.27;20.63;;;;;;;;;;6134385;23;20195;-82
2022/03/10 03:23:53;;;;;;;49.63;23.43;;;;;;;;;;6161610;23;20922;-82
2022/03/10 03:26:19;;;;;;;44.27;22.60;;;;;;;;;;6138262;23;20149;-82
2022/03/10 03:28:45;;;;;;;55.03;25.17;;;;;;;;;;6139182;23;20153;-82
2022/03/10 03:31:11;;;;;;;55.97;25.30;;;;;;;;;;6163545;23;20161;-81
2022/03/10 03:33:38;;;;;;;61.63;27.47;;;;;;;;;;6165491;23;20244;-81
2022/03/10 03:36:04;;;;;;;62.93;26.30;;;;;;;;;;6140975;23;20233;-82
2022/03/10 03:38:30;;;;;;;60.60;27.97;;;;;;;;;;6137196;23;20242;-82
2022/03/10 03:40:56;;;;;;;38.77;19.27;;;;;;;;;;6141595;23;20179;-82
2022/03/10 03:43:22;;;;;;;47.17;22.93;;;;;;;;;;6167295;23;20196;-82
2022/03/10 03:45:48;;;;;;;37.43;19.67;;;;;;;;;;6140096;23;20156;-82
2022/03/10 03:48:14;;;;;;;30.67;18.40;;;;;;;;;;6165519;23;20145;-82
2022/03/10 03:50:40;;;;;;;35.03;20.17;;;;;;;;;;6168185;23;20148;-82
2022/03/10 03:53:06;;;;;;;38.17;18.83;;;;;;;;;;6168112;23;20633;-82
2022/03/10 03:55:32;;;;;;;34.47;18.90;;;;;;;;;;6169518;23;20158;-82
2022/03/10 03:57:58;;;;;;;34.93;19.27;;;;;;;;;;6168508;23;20212;-84
2022/03/10 04:00:24;;;;;;;32.23;18.37;;;;;;;;;;6165713;23;20179;-82
2022/03/10 04:02:50;;;;;;;37.83;19.20;;;;;;;;;;6140195;23;20171;-82
2022/03/10 04:05:17;;;;;;;37.93;18.90;;;;;;;;;;6143706;23;20151;-82
2022/03/10 04:07:43;;;;;;;34.90;19.50;;;;;;;;;;6167656;23;20159;-82
2022/03/10 04:10:09;;;;;;;34.07;17.80;;;;;;;;;;6166681;23;20156;-82
2022/03/10 04:12:35;;;;;;;37.53;19.57;;;;;;;;;;6165270;23;20176;-82
2022/03/10 04:15:01;;;;;;;33.87;17.77;;;;;;;;;;6164102;23;20147;-82
2022/03/10 04:17:28;;;;;;;34.60;18.53;;;;;;;;;;6167893;23;20604;-81
2022/03/10 04:19:54;;;;;;;40.53;20.20;;;;;;;;;;6140062;23;20161;-82
2022/03/10 04:22:20;;;;;;;36.87;19.43;;;;;;;;;;6166833;23;20172;-82
2022/03/10 04:24:48;;;;;;;37.87;18.97;;;;;;;;;;6166254;23;20611;-81
2022/03/10 04:27:14;;;;;;;36.00;19.63;;;;;;;;;;6168664;23;20155;-82
2022/03/10 04:29:40;;;;;;;36.10;18.40;;;;;;;;;;6167319;23;20173;-82
2022/03/10 04:32:06;;;;;;;35.27;18.27;;;;;;;;;;6167369;23;20174;-82
2022/03/10 04:34:32;;;;;;;36.13;19.30;;;;;;;;;;6167463;23;20240;-82
2022/03/10 04:36:58;;;;;;;36.30;19.23;;;;;;;;;;6167355;23;20151;-82
2022/03/10 04:39:24;;;;;;;35.73;18.97;;;;;;;;;;6139911;23;20501;-82
2022/03/10 04:41:51;;;;;;;37.90;19.03;;;;;;;;;;6113929;23;20183;-82
2022/03/10 04:44:17;;;;;;;37.07;19.13;;;;;;;;;;6140538;23;20147;-82
2022/03/10 04:46:46;;;;;;;35.93;17.77;;;;;;;;;;6165395;23;20155;-82
2022/03/10 04:49:12;;;;;;;43.80;19.27;;;;;;;;;;6139671;23;20153;-82
2022/03/10 04:51:38;;;;;;;36.67;18.90;;;;;;;;;;6163768;23;20157;-82
2022/03/10 04:54:04;;;;;;;35.57;19.93;;;;;;;;;;6166576;23;20191;-82
2022/03/10 04:56:30;;;;;;;33.93;18.27;;;;;;;;;;6165436;23;20166;-82
2022/03/10 04:58:56;;;;;;;39.43;19.77;;;;;;;;;;6165027;23;20155;-82
2022/03/10 05:01:22;;;;;;;39.77;20.60;;;;;;;;;;6163755;23;20212;-82
2022/03/10 05:03:50;;;;;;;38.37;19.87;;;;;;;;;;6165228;23;20264;-82
2022/03/10 05:06:16;;;;;;;39.83;21.40;;;;;;;;;;6138210;23;20163;-82
2022/03/10 05:08:42;;;;;;;35.80;19.17;;;;;;;;;;6164696;23;20168;-82
2022/03/10 05:11:08;;;;;;;39.97;20.47;;;;;;;;;;6165380;23;20552;-83
2022/03/10 05:13:34;;;;;;;36.57;19.13;;;;;;;;;;6166036;23;20168;-83
2022/03/10 05:16:00;;;;;;;38.17;19.50;;;;;;;;;;6165364;23;20206;-83
2022/03/10 05:18:26;;;;;;;36.33;18.93;;;;;;;;;;6165083;23;20663;-82
2022/03/10 05:20:52;;;;;;;38.67;19.60;;;;;;;;;;6140991;23;20179;-82
2022/03/10 05:23:18;;;;;;;36.97;19.27;;;;;;;;;;6165819;23;20544;-82
2022/03/10 05:25:44;;;;;;;36.73;18.07;;;;;;;;;;6166038;23;20148;-83
2022/03/10 05:28:13;;;;;;;33.83;19.00;;;;;;;;;;6165495;23;20145;-83
2022/03/10 05:30:39;;;;;;;41.03;19.67;;;;;;;;;;6165404;23;20277;-82
2022/03/10 05:33:05;;;;;;;39.13;19.30;;;;;;;;;;6165638;23;20173;-84
2022/03/10 05:35:31;;;;;;;38.60;18.23;;;;;;;;;;6166737;23;20157;-83
2022/03/10 05:37:58;;;;;;;43.17;19.33;;;;;;;;;;6166274;23;20175;-81
2022/03/10 05:40:24;;;;;;;35.53;18.03;;;;;;;;;;6166157;23;20255;-82
2022/03/10 05:42:52;;;;;;;34.70;18.67;;;;;;;;;;6166807;23;20169;-81
2022/03/10 05:45:20;;;;;;;36.80;19.43;;;;;;;;;;6166625;23;20547;-82
2022/03/10 05:47:47;;;;;;;33.40;18.13;;;;;;;;;;6165806;23;20534;-84
2022/03/10 05:50:14;;;;;;;35.80;18.60;;;;;;;;;;6165107;23;20155;-83
2022/03/10 05:52:40;;;;;;;33.27;18.30;;;;;;;;;;6165845;23;20180;-84
2022/03/10 05:55:06;;;;;;;36.30;17.93;;;;;;;;;;6138571;23;20234;-82
2022/03/10 05:57:32;;;;;;;30.53;17.87;;;;;;;;;;6164461;23;20610;-83
2022/03/10 05:59:58;;;;;;;30.87;17.50;;;;;;;;;;6168252;23;20160;-83
2022/03/10 06:02:24;;;;;;;32.53;18.00;;;;;;;;;;6140853;23;20177;-83
2022/03/10 06:04:50;;;;;;;33.83;18.97;;;;;;;;;;6167672;23;20144;-83
2022/03/10 06:07:16;;;;;;;32.10;18.03;;;;;;;;;;6139435;23;20197;-82
2022/03/10 06:09:43;;;;;;;33.93;18.63;;;;;;;;;;6165115;23;20152;-82
2022/03/10 06:12:09;;;;;;;34.80;18.13;;;;;;;;;;6163990;23;20176;-82
2022/03/10 06:14:38;;;;;;;33.67;19.20;;;;;;;;;;6165861;23;20162;-83
2022/03/10 06:17:04;;;;;;;33.73;17.13;;;;;;;;;;6139639;23;20161;-82
2022/03/10 06:19:30;;;;;;;36.57;17.97;;;;;;;;;;6165587;23;20163;-82
2022/03/10 06:21:56;;;;;;;32.67;18.43;;;;;;;;;;6166178;23;20203;-82
2022/03/10 06:24:22;;;;;;;35.73;17.37;;;;;;;;;;6165169;23;20150;-82
2022/03/10 06:26:48;;;;;;;32.83;18.43;;;;;;;;;;6161107;23;20160;-81
2022/03/10 06:29:14;;;;;;;37.03;19.40;;;;;;;;;;6162882;23;20149;-82
2022/03/10 06:31:41;;;;;;;39.57;19.60;;;;;;;;;;6162647;23;20597;-81
2022/03/10 06:34:07;;;;;;;37.47;18.67;;;;;;;;;;6161509;23;20173;-82
2022/03/10 06:36:33;;;;;;;38.03;19.30;;;;;;;;;;6162664;23;20495;-82
2022/03/10 06:38:59;;;;;;;37.27;18.60;;;;;;;;;;6163714;23;20154;-81
2022/03/10 06:41:26;;;;;;;36.13;19.83;;;;;;;;;;6165660;23;20203;-82
2022/03/10 06:43:52;;;;;;;38.23;19.77;;;;;;;;;;6163770;23;20173;-81
2022/03/10 06:46:18;;;;;;;35.93;20.00;;;;;;;;;;6162957;23;20149;-84
2022/03/10 06:48:44;;;;;;;41.80;21.57;;;;;;;;;;6138058;23;20492;-82
2022/03/10 06:51:10;;;;;;;40.97;20.60;;;;;;;;;;6165203;23;20155;-82
2022/03/10 06:53:36;;;;;;;39.63;20.13;;;;;;;;;;6191273;23;20199;-81
2022/03/10 06:56:02;;;;;;;35.03;18.47;;;;;;;;;;6219436;23;20152;-80
2022/03/10 06:58:28;;;;;;;47.70;20.43;;;;;;;;;;6191468;23;20161;-80
2022/03/10 07:00:54;;;;;;;36.17;18.77;;;;;;;;;;6217952;23;20181;-80
2022/03/10 07:03:21;;;;;;;41.33;18.23;;;;;;;;;;6190721;23;20230;-82
2022/03/10 07:05:48;;;;;;;37.00;17.73;;;;;;;;;;6190930;23;20216;-81
2022/03/10 07:08:14;;;;;;;35.20;18.33;;;;;;;;;;6217547;23;20151;-81
2022/03/10 07:10:40;;;;;;;30.90;17.23;;;;;;;;;;6190681;23;20153;-81
2022/03/10 07:13:07;;;;;;;30.30;17.07;;;;;;;;;;6215836;23;20550;-81
2022/03/10 07:15:33;;;;;;;30.53;17.70;;;;;;;;;;6218285;23;20150;-81
2022/03/10 07:17:59;;;;;;;33.93;18.93;;;;;;;;;;6219760;23;20149;-81
2022/03/10 07:20:25;;;;;;;33.20;19.00;;;;;;;;;;6192781;23;20185;-81
2022/03/10 07:22:51;;;;;;;34.63;18.20;;;;;;;;;;6192708;23;20201;-81
2022/03/10 07:25:20;;;;;;;30.00;17.83;;;;;;;;;;6218725;23;20170;-81
2022/03/10 07:27:46;;;;;;;32.53;17.93;;;;;;;;;;6217916;23;20168;-81
2022/03/10 07:30:12;;;;;;;34.23;17.57;;;;;;;;;;6218397;23;20596;-80
2022/03/10 07:32:38;;;;;;;27.13;15.00;;;;;;;;;;6218914;23;20166;-81
2022/03/10 07:35:04;;;;;;;27.27;15.77;;;;;;;;;;6219679;23;20152;-81
2022/03/10 07:37:30;;;;;;;22.90;14.00;;;;;;;;;;6215530;23;20147;-81
2022/03/10 07:39:57;;;;;;;25.23;14.57;;;;;;;;;;6217877;23;20154;-81
2022/03/10 07:42:23;;;;;;;20.53;12.73;;;;;;;;;;6188524;23;20185;-82
2022/03/10 07:44:49;;;;;;;19.83;13.33;;;;;;;;;;6218947;23;20462;-81
2022/03/10 07:47:15;;;;;;;22.17;13.83;;;;;;;;;;6219131;23;20491;-81
2022/03/10 07:49:41;;;;;;;24.17;14.73;;;;;;;;;;6220902;23;20628;-81
2022/03/10 07:52:07;;;;;;;20.57;13.10;;;;;;;;;;6226102;23;20142;-81
2022/03/10 07:54:34;;;;;;;23.83;14.10;;;;;;;;;;6219893;23;20185;-82
2022/03/10 07:57:00;;;;;;;23.53;14.07;;;;;;;;;;6219557;23;20254;-82
2022/03/10 07:59:26;;;;;;;26.57;14.40;;;;;;;;;;6219954;23;20150;-83
2022/03/10 08:01:52;;;;;;;21.37;13.63;;;;;;;;;;6220143;23;20701;-82
2022/03/10 08:04:19;;;;;;;22.63;13.77;;;;;;;;;;6193757;23;20267;-82
2022/03/10 08:06:45;;;;;;;21.67;12.73;;;;;;;;;;6219747;23;20150;-82
2022/03/10 08:09:11;;;;;;;22.67;12.93;;;;;;;;;;6221652;23;20150;-81
2022/03/10 08:11:38;;;;;;;19.53;12.57;;;;;;;;;;6223021;23;20664;-82
2022/03/10 08:14:04;;;;;;;24.33;14.70;;;;;;;;;;6198245;23;20249;-82
2022/03/10 08:16:31;;;;;;;18.87;13.33;;;;;;;;;;6198344;23;20161;-82
2022/03/10 08:18:57;;;;;;;19.53;13.37;;;;;;;;;;6226172;23;20222;-83
2022/03/10 08:21:23;;;;;;;23.40;13.73;;;;;;;;;;6222908;23;20624;-83
2022/03/10 08:23:50;;;;;;;21.00;14.27;;;;;;;;;;6223322;23;20176;-82
2022/03/10 08:26:17;;;;;;;26.07;14.87;;;;;;;;;;6223466;23;20147;-83
2022/03/10 08:28:44;;;;;;;22.73;13.57;;;;;;;;;;6195160;23;20589;-84
2022/03/10 08:31:10;;;;;;;24.53;13.60;;;;;;;;;;6222863;23;20164;-83
2022/03/10 08:33:37;;;;;;;18.80;12.77;;;;;;;;;;6222341;23;20193;-83
2022/03/10 08:36:05;;;;;;;22.10;13.57;;;;;;;;;;6221667;23;20170;-83
2022/03/10 08:38:32;;;;;;;21.17;13.87;;;;;;;;;;6223329;23;20156;-84
2022/03/10 08:40:59;;;;;;;24.53;14.17;;;;;;;;;;6220322;23;20309;-84
2022/03/10 08:43:28;;;;;;;24.00;13.50;;;;;;;;;;6224707;23;20168;-83
2022/03/10 08:45:55;;;;;;;21.47;13.63;;;;;;;;;;6221372;23;20193;-84
2022/03/10 08:48:21;;;;;;;25.47;14.33;;;;;;;;;;6223040;23;20223;-83
2022/03/10 08:50:47;;;;;;;21.93;13.17;;;;;;;;;;6223261;23;20157;-83
2022/03/10 08:53:13;;;;;;;22.67;13.63;;;;;;;;;;6192392;23;20238;-83
2022/03/10 08:55:39;;;;;;;20.50;13.13;;;;;;;;;;6192730;23;20220;-84
2022/03/10 08:58:06;;;;;;;23.10;13.80;;;;;;;;;;6194648;23;20161;-84
2022/03/10 09:00:32;;;;;;;19.23;12.00;;;;;;;;;;6191706;23;20178;-84
2022/03/10 09:02:59;;;;;;;19.30;12.30;;;;;;;;;;6193006;23;20181;-85
2022/03/10 09:05:25;;;;;;;22.93;12.87;;;;;;;;;;6193294;23;20162;-84
2022/03/10 09:07:51;;;;;;;27.50;13.87;;;;;;;;;;6191413;23;20149;-84
2022/03/10 09:10:17;;;;;;;22.03;13.20;;;;;;;;;;6194002;23;20177;-83
2022/03/10 09:12:43;;;;;;;22.77;14.10;;;;;;;;;;6191402;23;20261;-83
2022/03/10 09:15:10;;;;;;;20.03;13.40;;;;;;;;;;6192203;23;20176;-84
2022/03/10 09:17:37;;;;;;;31.70;14.20;;;;;;;;;;6191810;23;20154;-84
2022/03/10 09:20:05;;;;;;;21.53;13.23;;;;;;;;;;6189663;23;20231;-84
2022/03/10 09:22:31;;;;;;;20.03;13.43;;;;;;;;;;6191363;23;20147;-84
2022/03/10 09:24:57;;;;;;;22.20;13.40;;;;;;;;;;6192105;23;20150;-84
2022/03/10 09:27:23;;;;;;;20.40;13.63;;;;;;;;;;6192432;23;20169;-83
2022/03/10 09:29:49;;;;;;;22.27;13.80;;;;;;;;;;6193335;23;20150;-84
2022/03/10 09:32:16;;;;;;;19.73;12.83;;;;;;;;;;6193913;23;20150;-83
2022/03/10 09:34:42;;;;;;;20.27;13.20;;;;;;;;;;6195196;23;20196;-83
2022/03/10 09:37:08;;;;;;;23.97;13.87;;;;;;;;;;6197365;23;20197;-83
2022/03/10 09:39:34;;;;;;;20.53;12.80;;;;;;;;;;6195657;23;20162;-85
2022/03/10 09:42:04;;;;;;;19.20;13.10;;;;;;;;;;6194806;23;20178;-84
2022/03/10 09:44:31;;;;;;;27.70;15.43;;;;;;;;;;6193901;23;20178;-85
2022/03/10 09:47:02;;;;;;;24.17;13.87;;;;;;;;;;6195520;23;20157;-84
2022/03/10 09:49:28;;;;;;;25.23;14.37;;;;;;;;;;6194765;23;20135;-83
2022/03/10 09:51:56;;;;;;;24.13;13.33;;;;;;;;;;6194870;23;20158;-84
2022/03/10 09:54:22;;;;;;;20.93;12.43;;;;;;;;;;6193110;23;20190;-86
2022/03/10 09:56:48;;;;;;;22.53;13.40;;;;;;;;;;6192616;23;20167;-84
2022/03/10 09:59:14;;;;;;;20.47;13.10;;;;;;;;;;6193966;23;20147;-84
2022/03/10 10:01:40;;;;;;;24.17;14.27;;;;;;;;;;6189222;23;20178;-83
2022/03/10 10:04:07;;;;;;;20.90;13.10;;;;;;;;;;6189180;23;20164;-83
2022/03/10 10:06:52;;;;;;;25.97;14.37;;;;;;;;;;6189031;23;20224;-82
2022/03/10 10:09:20;;;;;;;24.37;13.53;;;;;;;;;;6190700;23;20499;-82
2022/03/10 10:11:46;;;;;;;20.17;13.77;;;;;;;;;;6189643;23;20159;-83
2022/03/10 10:14:14;;;;;;;25.63;13.63;;;;;;;;;;6188965;23;20178;-83
2022/03/10 10:16:50;;;;;;;23.00;13.63;;;;;;;;;;6188002;23;20229;-83
2022/03/10 10:19:17;;;;;;;25.80;15.23;;;;;;;;;;6187638;23;20156;-83
2022/03/10 10:21:43;;;;;;;21.10;13.70;;;;;;;;;;6198376;23;20188;-83
2022/03/10 10:24:17;;;;;;;32.23;14.40;;;;;;;;;;6199337;23;20165;-83
2022/03/10 10:26:43;;;;;;;22.10;14.27;;;;;;;;;;6191288;23;20209;-83
2022/03/10 10:29:10;;;;;;;28.47;15.73;;;;;;;;;;6188873;23;20480;-83
2022/03/10 10:31:38;;;;;;;26.03;15.20;;;;;;;;;;6189403;23;20157;-83
2022/03/10 10:34:08;;;;;;;29.83;14.83;;;;;;;;;;6189056;23;20174;-83
2022/03/10 10:36:37;;;;;;;21.77;14.90;;;;;;;;;;6188803;23;20567;-83
2022/03/10 10:39:12;;;;;;;28.93;14.57;;;;;;;;;;6187298;23;20159;-83
2022/03/10 10:41:39;;;;;;;25.23;15.10;;;;;;;;;;6186696;23;20251;-83
2022/03/10 10:44:06;;;;;;;27.53;15.33;;;;;;;;;;6188301;23;20485;-83
2022/03/10 10:46:34;;;;;;;25.07;14.10;;;;;;;;;;6187657;23;20496;-83
2022/03/10 10:49:01;;;;;;;21.30;14.10;;;;;;;;;;6190338;23;20170;-83
2022/03/10 10:51:29;;;;;;;25.30;14.53;;;;;;;;;;6188304;23;20154;-84
2022/03/10 10:53:55;;;;;;;22.20;13.97;;;;;;;;;;6206391;23;20189;-84
2022/03/10 10:56:21;;;;;;;21.37;14.83;;;;;;;;;;6193089;23;20158;-84
2022/03/10 10:58:47;;;;;;;27.13;15.80;;;;;;;;;;6219319;23;20168;-83
2022/03/10 11:01:29;;;;;;;26.10;15.00;;;;;;;;;;6219779;23;20173;-83
2022/03/10 11:03:56;;;;;;;22.80;14.33;;;;;;;;;;6218995;23;20165;-84
2022/03/10 11:06:22;;;;;;;21.47;14.23;;;;;;;;;;6217808;23;20146;-84
2022/03/10 11:08:49;;;;;;;21.57;14.37;;;;;;;;;;6191172;23;20589;-84
2022/03/10 11:11:15;;;;;;;23.73;13.60;;;;;;;;;;6218398;23;20157;-84
2022/03/10 11:13:41;;;;;;;19.87;13.17;;;;;;;;;;6219127;23;20750;-85
2022/03/10 11:16:08;;;;;;;23.10;13.83;;;;;;;;;;6191256;23;20200;-85
2022/03/10 11:18:34;;;;;;;23.27;14.47;;;;;;;;;;6218456;23;20173;-84
2022/03/10 11:21:20;;;;;;;19.70;13.50;;;;;;;;;;6218352;23;20515;-84
2022/03/10 11:23:46;;;;;;;23.10;13.87;;;;;;;;;;6198801;23;20181;-85
2022/03/10 11:26:22;;;;;;;22.93;14.20;;;;;;;;;;6193108;23;20153;-84
2022/03/10 11:28:49;;;;;;;23.23;15.63;;;;;;;;;;6218962;23;20145;-84
2022/03/10 11:31:16;;;;;;;20.70;14.70;;;;;;;;;;6193988;23;20161;-84
2022/03/10 11:33:43;;;;;;;25.17;14.93;;;;;;;;;;6217678;23;20199;-86
2022/03/10 11:36:26;;;;;;;21.13;14.20;;;;;;;;;;6219848;23;20157;-85
2022/03/10 11:38:53;;;;;;;19.20;13.17;;;;;;;;;;6193257;23;20189;-85
2022/03/10 11:41:19;;;;;;;21.27;14.53;;;;;;;;;;6221657;23;20220;-85
2022/03/10 11:44:06;;;;;;;17.50;12.70;;;;;;;;;;6195476;23;20169;-86
2022/03/10 11:46:32;;;;;;;19.87;14.33;;;;;;;;;;6220233;23;20158;-84
2022/03/10 11:49:01;;;;;;;20.27;14.30;;;;;;;;;;6221226;23;20157;-85
2022/03/10 11:51:43;;;;;;;22.23;14.73;;;;;;;;;;6195337;23;20478;-85
2022/03/10 11:54:09;;;;;;;24.73;14.90;;;;;;;;;;6189073;23;20219;-85
2022/03/10 11:56:55;;;;;;;21.50;14.17;;;;;;;;;;6192800;23;20151;-85
2022/03/10 11:59:27;;;;;;;19.10;13.50;;;;;;;;;;6189818;23;20185;-84
2022/03/10 12:01:53;;;;;;;21.90;14.63;;;;;;;;;;6194055;23;20520;-83
2022/03/10 12:04:23;;;;;;;20.33;14.37;;;;;;;;;;6195822;23;20166;-86
2022/03/10 12:06:53;;;;;;;20.00;13.20;;;;;;;;;;6193153;23;20154;-84
2022/03/10 12:09:42;;;;;;;24.63;15.47;;;;;;;;;;6194720;23;20226;-85
2022/03/10 12:12:14;;;;;;;20.37;14.33;;;;;;;;;;6193439;23;20177;-85
2022/03/10 12:14:40;;;;;;;21.37;14.97;;;;;;;;;;6192724;23;20178;-86
2022/03/10 12:17:26;;;;;;;18.80;13.00;;;;;;;;;;6193210;23;20213;-85
2022/03/10 12:20:11;;;;;;;18.67;10.63;;;;;;;;;;6196950;23;20157;-84
2022/03/10 12:22:37;;;;;;;17.27;12.03;;;;;;;;;;6194116;23;20612;-86
2022/03/10 12:25:20;;;;;;;17.00;12.97;;;;;;;;;;6197391;23;20144;-84
2022/03/10 12:27:55;;;;;;;17.10;13.07;;;;;;;;;;6195142;23;20154;-84
2022/03/10 12:30:22;;;;;;;17.27;13.13;;;;;;;;;;6196867;23;20467;-85
2022/03/10 12:32:50;;;;;;;15.30;11.80;;;;;;;;;;6193399;23;20254;-84
2022/03/10 12:35:18;;;;;;;17.67;12.83;;;;;;;;;;6194005;23;20217;-84
2022/03/10 12:37:50;;;;;;;17.17;11.80;;;;;;;;;;6191041;23;20146;-84
2022/03/10 12:40:17;;;;;;;15.30;12.03;;;;;;;;;;6191935;23;20150;-84
2022/03/10 12:42:44;;;;;;;14.00;11.10;;;;;;;;;;6192081;23;20200;-83
2022/03/10 12:45:10;;;;;;;17.27;10.63;;;;;;;;;;6190054;23;20170;-85
2022/03/10 12:47:38;;;;;;;15.93;11.37;;;;;;;;;;6190447;23;20229;-84
2022/03/10 12:50:04;;;;;;;16.17;12.10;;;;;;;;;;6191775;23;20213;-84
2022/03/10 12:52:32;;;;;;;15.23;10.80;;;;;;;;;;6191947;23;20161;-84
2022/03/10 12:55:07;;;;;;;14.13;12.00;;;;;;;;;;6186638;23;20198;-87
2022/03/10 12:57:37;;;;;;;20.13;12.73;;;;;;;;;;6195013;23;20226;-88
2022/03/10 13:00:17;;;;;;;15.53;12.73;;;;;;;;;;6222924;23;20146;-87
2022/03/10 13:02:43;;;;;;;16.97;12.23;;;;;;;;;;6223833;23;20134;-87
2022/03/10 13:05:09;;;;;;;15.07;11.93;;;;;;;;;;6227238;23;20166;-86
2022/03/10 13:07:35;;;;;;;11.97;10.27;;;;;;;;;;6226834;23;20204;-85
2022/03/10 13:10:07;;;;;;;15.97;10.50;;;;;;;;;;6199343;23;20176;-86
2022/03/10 13:12:37;;;;;;;9.80;8.53;;;;;;;;;;6226170;23;20153;-87
2022/03/10 13:15:04;;;;;;;9.63;8.43;;;;;;;;;;6199532;23;20235;-86
2022/03/10 13:17:32;;;;;;;10.93;9.70;;;;;;;;;;6225868;23;20146;-86
2022/03/10 13:19:58;;;;;;;13.20;10.50;;;;;;;;;;6226555;23;20146;-86
2022/03/10 13:22:24;;;;;;;14.17;10.70;;;;;;;;;;6224163;23;20169;-86
2022/03/10 13:24:52;;;;;;;13.70;10.40;;;;;;;;;;6197566;23;20197;-87
2022/03/10 13:27:23;;;;;;;9.63;8.63;;;;;;;;;;6223835;23;20614;-87
2022/03/10 13:29:52;;;;;;;8.23;7.43;;;;;;;;;;6196086;23;20664;-87
2022/03/10 13:32:18;;;;;;;10.07;6.87;;;;;;;;;;6198181;23;20154;-86
2022/03/10 13:34:44;;;;;;;8.07;7.23;;;;;;;;;;6200325;23;20184;-86
2022/03/10 13:37:11;;;;;;;10.40;8.43;;;;;;;;;;6227187;23;20146;-85
2022/03/10 13:39:38;;;;;;;10.83;8.33;;;;;;;;;;6226898;23;20160;-85
2022/03/10 13:42:04;;;;;;;17.60;11.60;;;;;;;;;;6226642;23;20615;-86
2022/03/10 13:44:30;;;;;;;7.50;6.37;;;;;;;;;;6226955;23;20173;-86
2022/03/10 13:47:06;;;;;;;9.10;7.30;;;;;;;;;;6224165;23;20142;-86
2022/03/10 13:49:40;;;;;;;10.07;6.90;;;;;;;;;;6225510;23;20195;-86
2022/03/10 13:52:11;;;;;;;10.20;7.00;;;;;;;;;;6225082;23;20138;-86
2022/03/10 13:54:40;;;;;;;9.50;6.73;;;;;;;;;;6192961;23;20190;-85
2022/03/10 13:57:06;;;;;;;7.73;6.43;;;;;;;;;;6198085;23;20150;-86
2022/03/10 13:59:32;;;;;;;7.57;6.80;;;;;;;;;;6199181;23;20536;-85
2022/03/10 14:01:58;;;;;;;8.40;5.97;;;;;;;;;;6198477;23;20190;-85
2022/03/10 14:04:24;;;;;;;7.30;5.40;;;;;;;;;;6195059;23;20508;-86
2022/03/10 14:06:51;;;;;;;7.57;5.90;;;;;;;;;;6196557;23;20154;-86
2022/03/10 14:09:21;;;;;;;7.00;5.80;;;;;;;;;;6196543;23;20154;-85
2022/03/10 14:11:50;;;;;;;6.63;5.90;;;;;;;;;;6194673;23;20166;-86
2022/03/10 14:14:29;;;;;;;7.00;5.47;;;;;;;;;;6196480;23;20659;-85
2022/03/10 14:16:55;;;;;;;6.40;5.80;;;;;;;;;;6195038;23;20154;-86
2022/03/10 14:19:34;;;;;;;7.53;5.60;;;;;;;;;;6193828;23;20150;-86
2022/03/10 14:22:01;;;;;;;8.00;5.10;;;;;;;;;;6194396;23;20237;-86
2022/03/10 14:24:28;;;;;;;6.23;5.20;;;;;;;;;;6193736;23;20181;-86